createdAt,value
2023-03-02T00:01:48.463Z,99686.56
2023-03-02T00:04:20.944Z,99694.97
2023-03-02T00:06:49.078Z,99691.81
2023-03-02T00:09:16.382Z,99691.38
2023-03-02T00:11:43.067Z,99681.88
2023-03-02T00:14:09.571Z,99688.88
2023-03-02T00:16:36.114Z,99694.94
2023-03-02T00:19:05.982Z,99700.16
2023-03-02T00:21:32.637Z,99701.94
2023-03-02T00:24:02.419Z,99706.59
2023-03-02T00:26:40.525Z,99703.91
2023-03-02T00:29:07.037Z,99696.13
2023-03-02T00:31:38.089Z,99697.19
2023-03-02T00:34:06.679Z,99693.59
2023-03-02T00:36:33.168Z,99695.56
2023-03-02T00:38:59.738Z,99695.69
2023-03-02T00:41:26.201Z,99696.28
2023-03-02T00:43:52.899Z,99695.31
2023-03-02T00:46:22.231Z,99697.09
2023-03-02T00:48:49.607Z,99697.25
2023-03-02T00:51:19.370Z,99692.97
2023-03-02T00:53:46.349Z,99695.56
2023-03-02T00:56:13.407Z,99703.22
2023-03-02T00:58:41.433Z,99705.34
2023-03-02T01:01:11.491Z,99702.84
2023-03-02T01:03:38.388Z,99706.34
2023-03-02T01:06:06.395Z,99705.56
2023-03-02T01:08:38.411Z,99704.84
2023-03-02T01:11:20.769Z,99698.66
2023-03-02T01:13:47.737Z,99696.03
2023-03-02T01:16:15.187Z,99691.06
2023-03-02T01:18:41.714Z,99694.72
2023-03-02T01:21:11.575Z,99694.25
2023-03-02T01:23:38.023Z,99690.94
2023-03-02T01:26:04.656Z,99691.41
2023-03-02T01:28:33.896Z,99679.56
2023-03-02T01:31:04.329Z,99677.69
2023-03-02T01:33:31.511Z,99680.63
2023-03-02T01:35:58.135Z,99678.31
2023-03-02T01:38:24.707Z,99684.22
2023-03-02T01:40:51.280Z,99666.13
2023-03-02T01:43:18.621Z,99663.81
2023-03-02T01:45:53.140Z,99661.31
2023-03-02T01:48:48.268Z,99654.50
2023-03-02T01:51:18.880Z,99658.28
2023-03-02T01:53:49.227Z,99660.25
2023-03-02T01:56:18.719Z,99648.78
2023-03-02T01:58:48.367Z,99654.00
2023-03-02T02:01:17.672Z,99649.78
2023-03-02T02:03:47.135Z,99643.78
2023-03-02T02:06:21.620Z,99640.00
2023-03-02T02:08:49.437Z,99648.06
2023-03-02T02:11:15.960Z,99639.09
2023-03-02T02:13:43.322Z,99641.78
2023-03-02T02:16:09.944Z,99639.47
2023-03-02T02:18:39.745Z,99643.94
2023-03-02T02:21:07.791Z,99636.31
2023-03-02T02:23:49.690Z,99639.63
2023-03-02T02:26:21.044Z,99639.81
2023-03-02T02:28:57.791Z,99635.34
2023-03-02T02:31:40.400Z,99637.69
2023-03-02T02:34:11.392Z,99632.50
2023-03-02T02:36:42.414Z,99631.78
2023-03-02T02:39:18.024Z,99629.00
2023-03-02T02:41:47.575Z,99631.59
2023-03-02T02:44:17.340Z,99629.91
2023-03-02T02:46:50.304Z,99623.09
2023-03-02T02:49:35.995Z,99623.41
2023-03-02T02:52:04.344Z,99622.28
2023-03-02T02:54:33.064Z,99624.78
2023-03-02T02:57:02.586Z,99625.16
2023-03-02T02:59:33.313Z,99618.34
2023-03-02T03:02:00.161Z,99620.13
2023-03-02T03:04:30.399Z,99624.44
2023-03-02T03:06:59.627Z,99618.44
2023-03-02T03:09:27.403Z,99619.34
2023-03-02T03:12:19.168Z,99618.53
2023-03-02T03:14:46.434Z,99618.25
2023-03-02T03:17:13.764Z,99616.47
2023-03-02T03:19:45.597Z,99611.47
2023-03-02T03:22:15.070Z,99617.28
2023-03-02T03:24:43.427Z,99612.91
2023-03-02T03:27:12.540Z,99610.03
2023-03-02T03:29:41.219Z,99614.22
2023-03-02T03:32:07.871Z,99619.59
2023-03-02T03:34:40.871Z,99615.22
2023-03-02T03:37:10.108Z,99614.41
2023-03-02T03:39:36.666Z,99626.72
2023-03-02T03:42:03.808Z,99622.25
2023-03-02T03:44:30.402Z,99627.28
2023-03-02T03:46:57.018Z,99619.19
2023-03-02T03:49:23.817Z,99626.56
2023-03-02T03:51:50.276Z,99626.00
2023-03-02T03:54:16.942Z,99621.38
2023-03-02T03:56:47.579Z,99618.63
2023-03-02T03:59:17.865Z,99619.25
2023-03-02T04:01:53.608Z,99617.25
2023-03-02T04:04:29.449Z,99624.13
2023-03-02T04:06:56.268Z,99621.19
2023-03-02T04:09:23.299Z,99617.09
2023-03-02T04:11:53.423Z,99618.84
2023-03-02T04:14:21.546Z,99618.69
2023-03-02T04:16:48.128Z,99622.00
2023-03-02T04:19:15.179Z,99619.25
2023-03-02T04:21:48.424Z,99612.78
2023-03-02T04:24:15.858Z,99607.97
2023-03-02T04:26:43.849Z,99609.69
2023-03-02T04:29:12.083Z,99614.91
2023-03-02T04:31:38.866Z,99615.59
2023-03-02T04:34:05.594Z,99616.28
2023-03-02T04:36:34.627Z,99612.53
2023-03-02T04:39:01.553Z,99621.22
2023-03-02T04:41:28.078Z,99625.41
2023-03-02T04:43:54.606Z,99619.09
2023-03-02T04:46:24.661Z,99619.13
2023-03-02T04:48:51.984Z,99619.75
2023-03-02T04:51:25.421Z,99616.50
2023-03-02T04:53:53.622Z,99613.06
2023-03-02T04:56:21.171Z,99614.72
2023-03-02T04:58:48.381Z,99612.44
2023-03-02T05:01:16.891Z,99619.31
2023-03-02T05:03:43.397Z,99613.41
2023-03-02T05:06:10.600Z,99612.31
2023-03-02T05:08:37.916Z,99612.31
2023-03-02T05:11:06.344Z,99615.00
2023-03-02T05:13:32.802Z,99614.13
2023-03-02T05:15:59.367Z,99611.44
2023-03-02T05:18:31.991Z,99613.31
2023-03-02T05:20:58.501Z,99619.66
2023-03-02T05:23:31.541Z,99613.41
2023-03-02T05:25:58.044Z,99611.19
2023-03-02T05:28:25.874Z,99608.78
2023-03-02T05:30:53.334Z,99611.56
2023-03-02T05:33:20.547Z,99610.03
2023-03-02T05:35:47.869Z,99614.72
2023-03-02T05:38:14.865Z,99616.69
2023-03-02T05:40:45.167Z,99616.91
2023-03-02T05:43:16.340Z,99615.94
2023-03-02T05:45:43.133Z,99613.81
2023-03-02T05:48:12.080Z,99617.22
2023-03-02T05:50:38.597Z,99616.13
2023-03-02T05:53:05.281Z,99620.63
2023-03-02T05:55:36.792Z,99616.84
2023-03-02T05:58:06.369Z,99624.25
2023-03-02T06:00:32.930Z,99618.25
2023-03-02T06:02:59.495Z,99627.13
2023-03-02T06:05:26.055Z,99619.72
2023-03-02T06:07:52.576Z,99625.72
2023-03-02T06:10:19.165Z,99630.09
2023-03-02T06:12:45.731Z,99624.91
2023-03-02T06:15:12.278Z,99624.38
2023-03-02T06:17:38.828Z,99623.75
2023-03-02T06:20:10.271Z,99624.31
2023-03-02T06:22:48.164Z,99621.53
2023-03-02T06:25:18.826Z,99622.34
2023-03-02T06:27:46.133Z,99621.44
2023-03-02T06:30:17.307Z,99623.41
2023-03-02T06:32:44.455Z,99618.53
2023-03-02T06:35:12.400Z,99620.31
2023-03-02T06:37:39.140Z,99623.88
2023-03-02T06:40:10.241Z,99625.66
2023-03-02T06:42:38.221Z,99631.19
2023-03-02T06:45:06.120Z,99629.78
2023-03-02T06:47:33.394Z,99630.88
2023-03-02T06:50:00.290Z,99627.28
2023-03-02T06:52:27.597Z,99638.56
2023-03-02T06:54:54.911Z,99634.00
2023-03-02T06:57:21.430Z,99638.72
2023-03-02T06:59:47.883Z,99628.75
2023-03-02T07:02:14.458Z,99625.50
2023-03-02T07:04:41.004Z,99622.91
2023-03-02T07:07:07.521Z,99624.25
2023-03-02T07:09:34.460Z,99629.09
2023-03-02T07:12:00.999Z,99628.38
2023-03-02T07:14:27.577Z,99625.06
2023-03-02T07:16:56.667Z,99633.22
2023-03-02T07:19:23.375Z,99638.03
2023-03-02T07:21:49.823Z,99626.56
2023-03-02T07:24:16.348Z,99638.19
2023-03-02T07:26:42.857Z,99630.66
2023-03-02T07:29:09.374Z,99640.88
2023-03-02T07:31:35.857Z,99624.31
2023-03-02T07:34:05.415Z,99643.22
2023-03-02T07:36:31.950Z,99638.94
2023-03-02T07:38:58.404Z,99636.22
2023-03-02T07:41:24.914Z,99637.31
2023-03-02T07:43:51.366Z,99644.28
2023-03-02T07:46:17.921Z,99646.72
2023-03-02T07:48:44.411Z,99640.06
2023-03-02T07:51:10.875Z,99641.94
2023-03-02T07:53:38.599Z,99642.22
2023-03-02T07:56:10.599Z,99642.03
2023-03-02T07:58:37.857Z,99634.06
2023-03-02T08:01:04.905Z,99635.94
2023-03-02T08:03:31.407Z,99637.03
2023-03-02T08:05:57.973Z,99632.97
2023-03-02T08:08:24.518Z,99640.13
2023-03-02T08:10:50.964Z,99640.47
2023-03-02T08:13:17.527Z,99639.38
2023-03-02T08:15:44.112Z,99636.63
2023-03-02T08:18:10.567Z,99634.72
2023-03-02T08:20:40.109Z,99635.13
2023-03-02T08:23:07.243Z,99634.09
2023-03-02T08:25:33.934Z,99631.94
2023-03-02T08:28:00.384Z,99630.50
2023-03-02T08:30:26.974Z,99632.44
2023-03-02T08:32:53.472Z,99632.34
2023-03-02T08:35:22.088Z,99638.13
2023-03-02T08:37:48.750Z,99622.72
2023-03-02T08:40:15.341Z,99631.56
2023-03-02T08:42:43.009Z,99634.91
2023-03-02T08:45:09.927Z,99634.31
2023-03-02T08:47:36.426Z,99638.19
2023-03-02T08:50:03.023Z,99634.09
2023-03-02T08:52:29.480Z,99631.97
2023-03-02T08:54:56.063Z,99639.09
2023-03-02T08:57:22.552Z,99639.69
2023-03-02T08:59:49.123Z,99636.59
2023-03-02T09:02:18.528Z,99624.81
2023-03-02T09:04:45.051Z,99626.00
2023-03-02T09:07:11.589Z,99622.13
2023-03-02T09:09:38.081Z,99624.41
2023-03-02T09:12:04.581Z,99621.03
2023-03-02T09:14:31.057Z,99615.97
2023-03-02T09:16:57.602Z,99605.97
2023-03-02T09:19:27.050Z,99613.97
2023-03-02T09:21:53.527Z,99608.25
2023-03-02T09:24:20.073Z,99610.38
2023-03-02T09:26:46.680Z,99604.91
2023-03-02T09:29:13.408Z,99600.16
2023-03-02T09:31:39.924Z,99601.81
2023-03-02T09:34:07.275Z,99603.41
2023-03-02T09:36:34.541Z,99604.03
2023-03-02T09:39:01.291Z,99609.53
2023-03-02T09:42:15.539Z,99606.31
2023-03-02T09:45:03.237Z,99610.06
2023-03-02T09:47:41.665Z,99605.28
2023-03-02T09:50:25.327Z,99611.94
2023-03-02T09:53:22.528Z,99606.50
2023-03-02T09:55:54.773Z,99607.84
2023-03-02T09:58:25.596Z,99608.59
2023-03-02T10:00:52.272Z,99611.09
2023-03-02T10:03:27.208Z,99606.56
2023-03-02T10:05:55.471Z,99600.84
2023-03-02T10:08:28.246Z,99605.59
2023-03-02T10:11:13.144Z,99604.78
2023-03-02T10:13:52.359Z,99606.69
2023-03-02T10:16:35.019Z,99599.25
2023-03-02T10:19:42.227Z,99590.22
2023-03-02T10:22:14.446Z,99598.97
2023-03-02T10:24:55.953Z,99594.63
2023-03-02T10:27:48.205Z,99594.34
2023-03-02T10:30:25.541Z,99588.28
2023-03-02T10:32:52.816Z,99578.38
2023-03-02T10:35:23.170Z,99586.22
2023-03-02T10:38:00.253Z,99593.28
2023-03-02T10:40:42.048Z,99587.44
2023-03-02T10:43:41.471Z,99581.81
2023-03-02T10:46:11.582Z,99576.06
2023-03-02T10:48:52.377Z,99584.00
2023-03-02T10:51:23.378Z,99581.78
2023-03-02T10:53:49.862Z,99576.44
2023-03-02T10:56:21.554Z,99578.97
2023-03-02T10:58:48.292Z,99584.00
2023-03-02T11:01:19.112Z,99577.78
2023-03-02T11:03:56.638Z,99576.78
2023-03-02T11:06:24.123Z,99581.59
2023-03-02T11:09:05.993Z,99571.09
2023-03-02T11:11:33.330Z,99570.44
2023-03-02T11:14:15.895Z,99575.13
2023-03-02T11:16:42.892Z,99564.13
2023-03-02T11:19:38.209Z,99561.88
2023-03-02T11:22:30.037Z,99562.09
2023-03-02T11:24:59.255Z,99553.78
2023-03-02T11:27:29.746Z,99554.38
2023-03-02T11:30:01.060Z,99551.13
2023-03-02T11:32:30.905Z,99549.06
2023-03-02T11:35:02.780Z,99543.91
2023-03-02T11:37:45.249Z,99546.72
2023-03-02T11:40:33.204Z,99546.88
2023-03-02T11:43:01.015Z,99540.94
2023-03-02T11:45:38.164Z,99537.78
2023-03-02T11:48:36.881Z,99536.44
2023-03-02T11:51:06.696Z,99531.09
2023-03-02T11:53:39.390Z,99527.34
2023-03-02T11:56:06.163Z,99525.19
2023-03-02T11:58:33.574Z,99525.13
2023-03-02T12:01:02.035Z,99525.13
2023-03-02T12:03:31.428Z,99514.84
2023-03-02T12:06:18.643Z,99517.72
2023-03-02T12:08:48.395Z,99513.47
2023-03-02T12:11:17.941Z,99513.13
2023-03-02T12:13:50.332Z,99510.00
2023-03-02T12:16:24.329Z,99512.22
2023-03-02T12:18:52.987Z,99512.88
2023-03-02T12:21:21.296Z,99511.56
2023-03-02T12:23:50.849Z,99506.31
2023-03-02T12:26:20.103Z,99510.56
2023-03-02T12:28:59.108Z,99507.09
2023-03-02T12:31:47.475Z,99495.72
2023-03-02T12:34:35.381Z,99494.25
2023-03-02T12:37:08.549Z,99498.56
2023-03-02T12:39:44.940Z,99500.47
2023-03-02T12:42:49.912Z,99496.91
2023-03-02T12:45:25.061Z,99491.47
2023-03-02T12:48:01.348Z,99484.69
2023-03-02T12:50:33.574Z,99477.69
2023-03-02T12:53:05.789Z,99476.09
2023-03-02T12:55:34.353Z,99480.34
2023-03-02T12:58:02.166Z,99474.09
2023-03-02T13:00:32.212Z,99476.84
2023-03-02T13:03:02.017Z,99469.81
2023-03-02T13:05:35.103Z,99469.94
2023-03-02T13:08:05.942Z,99467.38
2023-03-02T13:10:40.428Z,99476.25
2023-03-02T13:13:17.597Z,99463.00
2023-03-02T13:15:52.239Z,99459.38
2023-03-02T13:18:21.059Z,99458.72
2023-03-02T13:20:49.123Z,99466.31
2023-03-02T13:23:17.444Z,99456.78
2023-03-02T13:25:52.961Z,99455.38
2023-03-02T13:28:28.225Z,99458.03
2023-03-02T13:31:05.892Z,99456.13
2023-03-02T13:33:35.553Z,99459.41
2023-03-02T13:36:02.343Z,99457.72
2023-03-02T13:38:38.548Z,99457.06
2023-03-02T13:41:05.499Z,99459.56
2023-03-02T13:43:42.835Z,99459.28
2023-03-02T13:46:12.009Z,99457.59
2023-03-02T13:48:38.489Z,99453.31
2023-03-02T13:51:19.002Z,99449.84
2023-03-02T13:54:04.578Z,99448.78
2023-03-02T13:56:40.420Z,99441.78
2023-03-02T13:59:15.058Z,99437.28
2023-03-02T14:01:42.127Z,99427.78
2023-03-02T14:04:11.888Z,99423.28
2023-03-02T14:06:38.447Z,99422.28
2023-03-02T14:09:05.625Z,99428.19
2023-03-02T14:11:37.178Z,99422.41
2023-03-02T14:14:06.304Z,99424.19
2023-03-02T14:16:36.010Z,99427.53
2023-03-02T14:19:03.561Z,99416.06
2023-03-02T14:21:30.313Z,99414.09
2023-03-02T14:23:58.838Z,99413.09
2023-03-02T14:26:37.025Z,99413.59
2023-03-02T14:29:22.452Z,99409.97
2023-03-02T14:31:49.216Z,99403.59
2023-03-02T14:34:16.779Z,99396.44
2023-03-02T14:36:50.003Z,99408.63
2023-03-02T14:39:37.704Z,99397.25
2023-03-02T14:42:05.682Z,99406.75
2023-03-02T14:44:32.895Z,99404.16
2023-03-02T14:46:59.464Z,99397.22
2023-03-02T14:49:25.963Z,99395.44
2023-03-02T14:52:03.513Z,99395.34
2023-03-02T14:54:42.576Z,99391.75
2023-03-02T14:57:29.136Z,99397.66
2023-03-02T14:59:59.905Z,99393.16
2023-03-02T15:02:27.367Z,99390.53
2023-03-02T15:04:56.811Z,99399.16
2023-03-02T15:07:26.173Z,99388.66
2023-03-02T15:09:52.745Z,99392.06
2023-03-02T15:12:19.199Z,99387.78
2023-03-02T15:14:45.668Z,99388.72
2023-03-02T15:17:12.121Z,99380.78
2023-03-02T15:19:38.614Z,99374.44
2023-03-02T15:22:05.108Z,99367.31
2023-03-02T15:24:33.396Z,99382.94
2023-03-02T15:27:00.558Z,99382.75
2023-03-02T15:29:28.764Z,99387.88
2023-03-02T15:31:55.399Z,99379.16
2023-03-02T15:34:22.042Z,99385.91
2023-03-02T15:36:48.652Z,99378.00
2023-03-02T15:39:16.424Z,99382.25
2023-03-02T15:41:42.990Z,99377.50
2023-03-02T15:44:22.239Z,99387.88
2023-03-02T15:46:57.074Z,99383.44
2023-03-02T15:49:27.265Z,99384.06
2023-03-02T15:51:57.919Z,99381.06
2023-03-02T15:54:26.179Z,99374.88
2023-03-02T15:56:54.695Z,99374.84
2023-03-02T15:59:26.369Z,99368.78
2023-03-02T16:01:53.488Z,99372.88
2023-03-02T16:04:20.011Z,99378.59
2023-03-02T16:06:46.485Z,99377.25
2023-03-02T16:09:12.984Z,99386.63
2023-03-02T16:11:39.551Z,99383.69
2023-03-02T16:14:06.050Z,99383.34
2023-03-02T16:16:32.966Z,99392.56
2023-03-02T16:18:59.574Z,99385.94
2023-03-02T16:21:28.530Z,99394.31
2023-03-02T16:24:04.563Z,99398.38
2023-03-02T16:26:33.322Z,99403.34
2023-03-02T16:29:04.361Z,99413.69
2023-03-02T16:31:34.458Z,99408.97
2023-03-02T16:34:06.931Z,99414.88
2023-03-02T16:36:35.256Z,99412.72
2023-03-02T16:39:01.904Z,99419.44
2023-03-02T16:41:31.368Z,99420.16
2023-03-02T16:43:59.018Z,99416.63
2023-03-02T16:46:28.256Z,99424.34
2023-03-02T16:48:55.620Z,99422.53
2023-03-02T16:51:22.151Z,99432.84
2023-03-02T16:53:49.197Z,99424.13
2023-03-02T16:56:15.755Z,99425.84
2023-03-02T16:58:42.551Z,99427.38
2023-03-02T17:01:13.767Z,99428.28
2023-03-02T17:03:40.779Z,99431.72
2023-03-02T17:06:08.990Z,99437.78
2023-03-02T17:08:35.835Z,99441.06
2023-03-02T17:11:02.561Z,99440.88
2023-03-02T17:13:29.064Z,99445.28
2023-03-02T17:15:55.672Z,99450.50
2023-03-02T17:18:22.564Z,99456.53
2023-03-02T17:20:52.844Z,99456.03
2023-03-02T17:23:19.456Z,99464.53
2023-03-02T17:25:46.245Z,99461.50
2023-03-02T17:28:14.876Z,99467.88
2023-03-02T17:30:42.508Z,99483.53
2023-03-02T17:33:09.338Z,99474.47
2023-03-02T17:35:36.405Z,99479.75
2023-03-02T17:38:03.335Z,99484.97
2023-03-02T17:40:29.987Z,99480.22
2023-03-02T17:42:57.845Z,99479.81
2023-03-02T17:45:27.363Z,99484.97
2023-03-02T17:47:55.341Z,99483.25
2023-03-02T17:50:22.152Z,99494.31
2023-03-02T17:52:48.805Z,99496.84
2023-03-02T17:55:15.755Z,99491.19
2023-03-02T17:57:42.285Z,99501.75
2023-03-02T18:00:13.988Z,99499.72
2023-03-02T18:02:40.505Z,99503.47
2023-03-02T18:05:09.932Z,99500.81
2023-03-02T18:07:37.431Z,99501.69
2023-03-02T18:10:04.832Z,99501.63
2023-03-02T18:12:31.368Z,99497.09
2023-03-02T18:14:57.891Z,99502.38
2023-03-02T18:17:24.359Z,99506.72
2023-03-02T18:19:50.859Z,99509.59
2023-03-02T18:22:17.378Z,99504.25
2023-03-02T18:24:43.883Z,99506.84
2023-03-02T18:27:10.432Z,99508.34
2023-03-02T18:29:36.932Z,99508.19
2023-03-02T18:32:03.728Z,99511.75
2023-03-02T18:34:30.397Z,99513.56
2023-03-02T18:36:56.883Z,99514.28
2023-03-02T18:39:23.403Z,99515.06
2023-03-02T18:41:49.932Z,99512.44
2023-03-02T18:44:16.419Z,99515.19
2023-03-02T18:46:43.050Z,99511.63
2023-03-02T18:49:09.546Z,99517.66
2023-03-02T18:51:36.065Z,99514.78
2023-03-02T18:54:02.536Z,99514.09
2023-03-02T18:56:29.070Z,99524.72
2023-03-02T18:58:55.536Z,99527.25
2023-03-02T19:01:25.277Z,99528.03
2023-03-02T19:03:53.188Z,99535.91
2023-03-02T19:06:20.588Z,99537.75
2023-03-02T19:08:48.180Z,99530.69
2023-03-02T19:11:14.779Z,99536.72
2023-03-02T19:13:41.300Z,99532.13
2023-03-02T19:16:08.033Z,99527.72
2023-03-02T19:18:37.969Z,99530.25
2023-03-02T19:21:05.256Z,99532.78
2023-03-02T19:23:32.848Z,99531.06
2023-03-02T19:25:59.967Z,99526.81
2023-03-02T19:28:27.483Z,99527.50
2023-03-02T19:30:54.000Z,99530.63
2023-03-02T19:33:20.578Z,99530.34
2023-03-02T19:35:47.092Z,99531.25
2023-03-02T19:38:13.687Z,99538.78
2023-03-02T19:40:40.563Z,99540.13
2023-03-02T19:43:07.121Z,99535.06
2023-03-02T19:45:34.915Z,99539.38
2023-03-02T19:48:03.320Z,99529.41
2023-03-02T19:50:30.372Z,99528.84
2023-03-02T19:52:58.026Z,99525.41
2023-03-02T19:55:26.107Z,99520.22
2023-03-02T19:57:59.533Z,99514.03
2023-03-02T20:00:28.442Z,99510.84
2023-03-02T20:02:55.504Z,99516.25
2023-03-02T20:05:22.032Z,99516.69
2023-03-02T20:07:49.242Z,99515.38
2023-03-02T20:10:31.202Z,99512.38
2023-03-02T20:12:59.572Z,99517.03
2023-03-02T20:15:28.253Z,99517.09
2023-03-02T20:17:59.356Z,99514.16
2023-03-02T20:20:26.941Z,99518.84
2023-03-02T20:22:53.765Z,99514.22
2023-03-02T20:25:23.587Z,99507.22
2023-03-02T20:27:53.780Z,99507.84
2023-03-02T20:30:32.038Z,99506.97
2023-03-02T20:32:59.520Z,99511.88
2023-03-02T20:35:29.567Z,99503.84
2023-03-02T20:37:57.838Z,99507.28
2023-03-02T20:40:26.217Z,99508.09
2023-03-02T20:42:53.161Z,99508.31
2023-03-02T20:45:20.385Z,99498.03
2023-03-02T20:47:47.837Z,99503.25
2023-03-02T20:50:21.330Z,99504.38
2023-03-02T20:52:47.943Z,99506.16
2023-03-02T20:55:15.053Z,99504.06
2023-03-02T20:57:41.563Z,99506.47
2023-03-02T21:00:13.675Z,99510.47
2023-03-02T21:02:40.335Z,99506.78
2023-03-02T21:05:07.201Z,99513.63
2023-03-02T21:07:35.746Z,99518.84
2023-03-02T21:10:10.761Z,99512.56
2023-03-02T21:12:37.552Z,99521.91
2023-03-02T21:15:05.143Z,99518.84
2023-03-02T21:17:31.862Z,99525.28
2023-03-02T21:19:58.453Z,99525.16
2023-03-02T21:22:25.128Z,99515.41
2023-03-02T21:24:53.030Z,99523.00
2023-03-02T21:27:19.912Z,99516.00
2023-03-02T21:29:46.406Z,99515.66
2023-03-02T21:32:12.975Z,99519.88
2023-03-02T21:34:39.485Z,99521.81
2023-03-02T21:37:06.056Z,99526.56
2023-03-02T21:39:32.676Z,99525.44
2023-03-02T21:41:59.245Z,99523.66
2023-03-02T21:44:25.825Z,99531.28
2023-03-02T21:46:52.283Z,99533.69
2023-03-02T21:49:21.149Z,99534.88
2023-03-02T21:51:49.863Z,99543.44
2023-03-02T21:54:16.510Z,99533.09
2023-03-02T21:56:43.574Z,99523.38
2023-03-02T21:59:11.140Z,99531.31
2023-03-02T22:01:37.634Z,99524.34
2023-03-02T22:04:04.414Z,99526.84
2023-03-02T22:06:33.061Z,99529.28
2023-03-02T22:09:01.353Z,99518.75
2023-03-02T22:11:34.865Z,99512.03
2023-03-02T22:14:10.060Z,99516.94
2023-03-02T22:16:39.719Z,99522.22
2023-03-02T22:19:30.292Z,99522.97
2023-03-02T22:22:00.181Z,99520.72
2023-03-02T22:24:29.017Z,99516.56
2023-03-02T22:27:04.522Z,99523.88
2023-03-02T22:29:49.991Z,99526.69
2023-03-02T22:32:31.089Z,99517.84
2023-03-02T22:35:08.458Z,99526.22
2023-03-02T22:37:35.058Z,99527.22
2023-03-02T22:40:07.505Z,99534.84
2023-03-02T22:42:34.064Z,99532.25
2023-03-02T22:45:15.975Z,99540.78
2023-03-02T22:47:44.120Z,99539.91
2023-03-02T22:50:37.806Z,99544.28
2023-03-02T22:53:19.745Z,99537.22
2023-03-02T22:55:47.781Z,99532.91
2023-03-02T22:58:20.002Z,99537.97
2023-03-02T23:00:47.928Z,99538.69
2023-03-02T23:03:18.698Z,99538.78
2023-03-02T23:05:49.086Z,99544.38
2023-03-02T23:08:27.000Z,99540.50
2023-03-02T23:10:57.807Z,99545.78
2023-03-02T23:13:31.166Z,99545.31
2023-03-02T23:15:57.728Z,99542.69
2023-03-02T23:18:29.735Z,99536.38
2023-03-02T23:20:56.212Z,99542.97
2023-03-02T23:23:24.582Z,99538.50
2023-03-02T23:25:51.095Z,99528.25
2023-03-02T23:28:17.632Z,99530.69
2023-03-02T23:30:45.308Z,99534.94
2023-03-02T23:33:11.866Z,99544.34
2023-03-02T23:35:38.450Z,99536.78
2023-03-02T23:38:04.986Z,99525.56
2023-03-02T23:40:31.544Z,99525.50
2023-03-02T23:42:58.139Z,99524.06
2023-03-02T23:45:24.730Z,99523.63
2023-03-02T23:47:51.259Z,99516.72
2023-03-02T23:50:17.803Z,99512.34
2023-03-02T23:52:44.259Z,99506.59
2023-03-02T23:55:11.327Z,99509.59
2023-03-02T23:57:37.813Z,99507.06
